Time;durP1;ratioP1;P1;durP2;ratioP2;P2;SDS_P1;SDS_P2;PMS_P1;PMS_P2;Temp;Humidity;BMP_temperature;BMP_pressure;BME280_temperature;BME280_humidity;BME280_pressure;Samples;Min_cycle;Max_cycle;Signal;HPM_P1;HPM_P2
2024/02/06 00:03:45;;;;;;;6.30;3.20;;;;;;;11.23;88.66;99636.89;181852;1252;43796;-88
2024/02/06 00:07:49;;;;;;;6.20;4.00;;;;;;;11.23;89.19;99632.45;181863;1252;44040;-88
2024/02/06 00:11:53;;;;;;;11.40;4.50;;;;;;;11.17;89.20;99623.27;181704;1253;44068;-88
2024/02/06 00:15:57;;;;;;;9.30;3.60;;;;;;;11.17;89.76;99627.21;182046;1251;43829;-88
2024/02/06 00:20:01;;;;;;;8.20;3.00;;;;;;;11.13;90.33;99624.00;181757;1253;57913;-89
2024/02/06 00:24:04;;;;;;;15.50;4.90;;;;;;;11.09;89.70;99612.40;182048;1253;43790;-88
2024/02/06 00:28:08;;;;;;;10.90;5.10;;;;;;;10.99;89.56;99613.94;181800;1252;43118;-89
2024/02/06 00:32:15;;;;;;;10.00;4.30;;;;;;;11.05;90.28;99614.71;181971;1253;44210;-89
2024/02/06 00:36:18;;;;;;;12.20;4.50;;;;;;;10.97;89.84;99604.36;181898;1252;43757;-89
2024/02/06 00:40:21;;;;;;;7.80;4.50;;;;;;;10.95;90.13;99607.59;181874;1254;59822;-88
2024/02/06 00:44:25;;;;;;;9.60;5.50;;;;;;;10.94;90.35;99598.44;181893;1252;43983;-88
2024/02/06 00:48:28;;;;;;;18.60;5.70;;;;;;;11.00;90.25;99599.88;181781;1252;43745;-88
2024/02/06 00:52:31;;;;;;;11.90;5.10;;;;;;;10.98;90.00;99596.29;181858;1252;44086;-88
2024/02/06 00:56:35;;;;;;;12.70;4.40;;;;;;;10.96;90.17;99593.70;181664;1252;44077;-89
2024/02/06 01:00:38;;;;;;;10.60;4.90;;;;;;;10.90;89.98;99590.36;181776;1253;59539;-88
2024/02/06 01:04:42;;;;;;;12.20;5.20;;;;;;;10.91;90.72;99594.16;181829;1252;44180;-88
2024/02/06 01:08:45;;;;;;;16.20;5.20;;;;;;;10.84;90.71;99586.63;181776;1251;44232;-88
2024/02/06 01:12:49;;;;;;;17.10;4.40;;;;;;;10.84;91.04;99587.71;181871;1251;44311;-89
2024/02/06 01:16:52;;;;;;;10.80;4.60;;;;;;;10.80;91.11;99588.26;181915;1252;44105;-89
2024/02/06 01:20:55;;;;;;;9.10;4.10;;;;;;;10.79;91.01;99591.74;182004;1253;58218;-90
2024/02/06 01:24:59;;;;;;;10.90;4.60;;;;;;;10.74;91.32;99592.90;181916;1252;43887;-88
2024/02/06 01:29:03;;;;;;;7.40;6.00;;;;;;;10.73;91.26;99583.07;181912;1253;43912;-89
2024/02/06 01:33:06;;;;;;;12.20;4.70;;;;;;;10.73;90.78;99579.67;181799;1252;44034;-89
2024/02/06 01:37:10;;;;;;;21.60;7.50;;;;;;;10.78;90.89;99581.34;181874;1253;44064;-89
2024/02/06 01:41:14;;;;;;;10.00;5.30;;;;;;;10.82;92.01;99583.30;181878;1252;60074;-88
2024/02/06 01:45:18;;;;;;;8.90;4.40;;;;;;;10.74;91.07;99583.51;181893;1253;44120;-89
2024/02/06 01:49:22;;;;;;;18.20;6.90;;;;;;;10.65;91.64;99579.85;181881;1253;43954;-88
2024/02/06 01:53:26;;;;;;;10.80;5.60;;;;;;;10.71;91.49;99573.11;181790;1253;44019;-89
2024/02/06 01:57:32;;;;;;;11.20;5.10;;;;;;;10.74;91.43;99571.80;181825;1252;43986;-89
2024/02/06 02:01:35;;;;;;;15.10;5.60;;;;;;;10.72;90.75;99570.42;181781;1253;59560;-88
2024/02/06 02:05:44;;;;;;;14.00;4.70;;;;;;;10.72;91.44;99576.91;181763;1252;43768;-88
2024/02/06 02:09:47;;;;;;;12.20;5.20;;;;;;;10.68;91.40;99566.98;181892;1253;43867;-88
2024/02/06 02:13:51;;;;;;;11.30;6.40;;;;;;;10.67;91.10;99568.53;181884;1252;44176;-88
2024/02/06 02:17:54;;;;;;;9.70;4.50;;;;;;;10.63;90.33;99566.83;181916;1252;43762;-88
2024/02/06 02:21:58;;;;;;;11.60;5.60;;;;;;;10.62;90.19;99569.02;181864;1253;59565;-89
2024/02/06 02:26:01;;;;;;;15.00;6.30;;;;;;;10.62;90.27;99567.98;181976;1251;44126;-88
2024/02/06 02:30:06;;;;;;;14.30;5.10;;;;;;;10.58;90.68;99569.59;181791;1253;44032;-88
2024/02/06 02:34:10;;;;;;;9.10;5.90;;;;;;;10.55;90.26;99566.95;181821;1253;44073;-87
2024/02/06 02:38:13;;;;;;;13.30;5.20;;;;;;;10.54;91.02;99578.10;181901;1252;44034;-88
2024/02/06 02:42:17;;;;;;;9.00;4.60;;;;;;;10.50;90.86;99575.64;182060;1252;58523;-89
2024/02/06 02:46:20;;;;;;;9.40;5.10;;;;;;;10.49;91.16;99587.95;181868;1252;43874;-88
2024/02/06 02:50:24;;;;;;;10.50;5.20;;;;;;;10.46;91.13;99586.30;181723;1253;44089;-88
2024/02/06 02:54:28;;;;;;;10.90;6.10;;;;;;;10.43;91.49;99584.00;181901;1251;44279;-88
2024/02/06 02:58:31;;;;;;;10.50;6.10;;;;;;;10.41;91.71;99586.33;181995;1252;43744;-88
2024/02/06 03:02:35;;;;;;;8.90;5.20;;;;;;;10.37;91.00;99582.46;181823;1252;59579;-87
2024/02/06 03:06:38;;;;;;;10.10;5.50;;;;;;;10.37;91.22;99580.98;181847;1252;44242;-88
2024/02/06 03:10:42;;;;;;;8.80;5.60;;;;;;;10.35;90.93;99581.20;181920;1252;43865;-88
2024/02/06 03:14:45;;;;;;;9.80;5.40;;;;;;;10.35;90.81;99576.55;182094;1253;44314;-88
2024/02/06 03:18:49;;;;;;;9.70;5.10;;;;;;;10.33;90.79;99577.88;181909;1252;44403;-88
2024/02/06 03:22:52;;;;;;;12.40;6.20;;;;;;;10.31;90.57;99585.31;181920;1253;59582;-88
2024/02/06 03:26:56;;;;;;;13.50;5.50;;;;;;;10.30;90.39;99581.46;181685;1252;269578;-88
2024/02/06 03:31:00;;;;;;;9.50;4.90;;;;;;;10.26;90.56;99578.23;181963;1252;44001;-88
2024/02/06 03:35:05;;;;;;;12.80;6.20;;;;;;;10.20;90.83;99580.44;181891;1253;43924;-88
2024/02/06 03:39:12;;;;;;;12.60;6.90;;;;;;;10.21;90.19;99570.97;181992;1253;43840;-89
2024/02/06 03:43:16;;;;;;;15.80;6.70;;;;;;;10.19;90.53;99578.25;181817;1252;58896;-89
2024/02/06 03:47:21;;;;;;;8.50;5.20;;;;;;;10.12;90.49;99568.54;181892;1252;44011;-89
2024/02/06 03:51:24;;;;;;;11.50;5.00;;;;;;;10.13;90.54;99568.27;181843;1252;43759;-89
2024/02/06 03:55:27;;;;;;;13.50;7.00;;;;;;;10.12;90.52;99562.90;181838;1253;43973;-89
2024/02/06 03:59:31;;;;;;;11.10;5.80;;;;;;;10.12;90.68;99568.94;181842;1253;44275;-89
2024/02/06 04:03:34;;;;;;;11.30;6.50;;;;;;;10.04;91.16;99557.27;181992;1253;59546;-89
2024/02/06 04:07:38;;;;;;;12.70;5.60;;;;;;;10.03;90.63;99563.54;181921;1252;44126;-89
2024/02/06 04:11:41;;;;;;;13.70;5.40;;;;;;;9.96;90.38;99557.12;182055;1253;44473;-89
2024/02/06 04:15:45;;;;;;;10.40;5.10;;;;;;;9.96;90.13;99551.38;182004;1252;44216;-86
2024/02/06 04:19:48;;;;;;;11.60;6.00;;;;;;;9.94;90.02;99560.10;181741;1253;44286;-86
2024/02/06 04:23:52;;;;;;;16.40;6.10;;;;;;;9.99;90.29;99565.16;181802;1253;59019;-86
2024/02/06 04:27:56;;;;;;;14.20;6.20;;;;;;;9.91;90.02;99555.20;181757;1253;44073;-86
2024/02/06 04:32:00;;;;;;;13.60;6.40;;;;;;;9.87;89.95;99546.91;181807;1253;44269;-86
2024/02/06 04:36:04;;;;;;;16.40;6.00;;;;;;;9.93;90.05;99557.02;181836;1252;44170;-86
2024/02/06 04:40:07;;;;;;;17.10;6.90;;;;;;;9.94;90.12;99557.81;181785;1253;43875;-86
2024/02/06 04:44:11;;;;;;;12.60;5.90;;;;;;;9.92;89.86;99551.50;181883;1252;59506;-85
2024/02/06 04:48:14;;;;;;;18.20;7.00;;;;;;;9.86;89.40;99541.52;181756;1251;43816;-86
2024/02/06 04:52:17;;;;;;;9.30;5.90;;;;;;;9.82;89.43;99537.95;181670;1253;44358;-85
2024/02/06 04:56:22;;;;;;;8.30;7.00;;;;;;;9.77;88.86;99532.45;181860;1252;44046;-86
2024/02/06 05:00:26;;;;;;;10.20;6.50;;;;;;;9.69;89.15;99531.91;181826;1253;44207;-86
2024/02/06 05:04:29;;;;;;;13.20;5.40;;;;;;;9.64;88.93;99524.33;181972;1253;59558;-86
2024/02/06 05:08:32;;;;;;;8.80;5.00;;;;;;;9.64;88.91;99537.69;181754;1253;44255;-85
2024/02/06 05:12:36;;;;;;;10.20;5.10;;;;;;;9.63;89.39;99530.48;181784;1252;44065;-85
2024/02/06 05:16:40;;;;;;;7.30;4.80;;;;;;;9.60;88.91;99530.22;181877;1251;43841;-85
2024/02/06 05:20:43;;;;;;;7.30;4.20;;;;;;;9.59;88.75;99531.39;181780;1251;43823;-85
2024/02/06 05:24:47;;;;;;;11.80;5.40;;;;;;;9.55;89.00;99532.95;181715;1252;59855;-84
2024/02/06 05:28:50;;;;;;;9.30;5.00;;;;;;;9.47;89.27;99533.50;181756;1253;44177;-84
2024/02/06 05:32:53;;;;;;;12.10;5.30;;;;;;;9.43;89.99;99535.79;181890;1252;43858;-85
2024/02/06 05:36:56;;;;;;;9.80;5.30;;;;;;;9.43;90.04;99530.95;181998;1252;44358;-85
2024/02/06 05:40:59;;;;;;;7.20;4.00;;;;;;;9.43;89.92;99519.16;181819;1252;43892;-86
2024/02/06 05:45:05;;;;;;;7.10;4.10;;;;;;;9.40;89.63;99522.59;181738;1254;59341;-85
2024/02/06 05:49:09;;;;;;;8.50;4.00;;;;;;;9.39;89.97;99519.99;181776;1256;43867;-85
2024/02/06 05:53:12;;;;;;;5.00;4.00;;;;;;;9.37;89.63;99515.21;181787;1253;43966;-85
2024/02/06 05:57:16;;;;;;;7.50;4.10;;;;;;;9.34;90.15;99507.36;181745;1256;44229;-85
2024/02/06 06:01:19;;;;;;;11.90;4.80;;;;;;;9.34;90.56;99512.30;181850;1253;44126;-85
2024/02/06 06:05:23;;;;;;;9.50;4.80;;;;;;;9.29;90.53;99513.11;181984;1253;59568;-86
2024/02/06 06:09:27;;;;;;;7.20;4.00;;;;;;;9.25;90.71;99518.41;181674;1253;44169;-85
2024/02/06 06:13:33;;;;;;;12.90;3.10;;;;;;;9.19;90.98;99515.79;181908;1252;44144;-86
2024/02/06 06:17:36;;;;;;;8.60;4.10;;;;;;;9.15;90.80;99509.52;181730;1253;44098;-85
2024/02/06 06:21:40;;;;;;;6.70;3.20;;;;;;;9.12;91.38;99517.05;181893;1252;43792;-85
2024/02/06 06:25:45;;;;;;;11.20;3.60;;;;;;;9.06;91.55;99519.72;181743;1253;58782;-85
2024/02/06 06:29:49;;;;;;;3.90;2.70;;;;;;;9.08;91.93;99520.80;181694;1252;43918;-86
2024/02/06 06:33:52;;;;;;;11.10;4.00;;;;;;;9.10;92.15;99512.13;181791;1252;43826;-85
2024/02/06 06:37:56;;;;;;;9.60;4.00;;;;;;;9.16;91.62;99508.97;181716;1254;43932;-85
2024/02/06 06:42:00;;;;;;;6.30;3.40;;;;;;;9.20;91.82;99515.17;181945;1252;44033;-85
2024/02/06 06:46:04;;;;;;;5.70;3.20;;;;;;;9.20;91.63;99507.85;181823;1253;58212;-85
2024/02/06 06:50:08;;;;;;;5.80;2.70;;;;;;;9.24;91.08;99502.91;181763;1252;44256;-85
2024/02/06 06:54:12;;;;;;;4.60;3.00;;;;;;;9.30;90.69;99491.28;181788;1252;43853;-85
2024/02/06 06:58:15;;;;;;;4.40;2.30;;;;;;;9.34;90.59;99500.30;181701;1252;43713;-85
2024/02/06 07:02:19;;;;;;;6.50;3.50;;;;;;;9.41;90.47;99503.18;181888;1254;44224;-85
2024/02/06 07:06:22;;;;;;;5.70;3.80;;;;;;;9.47;90.12;99497.52;181823;1253;58211;-85
2024/02/06 07:10:26;;;;;;;5.30;3.50;;;;;;;9.52;89.91;99502.38;181819;1254;43797;-85
2024/02/06 07:14:29;;;;;;;8.50;3.90;;;;;;;9.59;90.26;99505.52;181839;1254;43820;-85
2024/02/06 07:18:32;;;;;;;5.10;2.90;;;;;;;9.61;89.25;99507.27;181692;1252;45745;-85
2024/02/06 07:22:36;;;;;;;8.10;3.90;;;;;;;9.66;89.33;99508.97;182034;1252;43795;-84
2024/02/06 07:26:39;;;;;;;4.80;2.00;;;;;;;9.64;89.03;99507.70;181638;1251;59651;-85
2024/02/06 07:30:43;;;;;;;5.10;2.10;;;;;;;9.63;88.88;99515.41;181774;1253;44099;-85
2024/02/06 07:34:46;;;;;;;10.30;3.50;;;;;;;9.67;89.08;99514.72;181808;1252;43805;-85
2024/02/06 07:38:49;;;;;;;7.90;2.30;;;;;;;9.70;89.07;99512.84;181735;1254;44356;-85
2024/02/06 07:42:52;;;;;;;4.40;2.40;;;;;;;9.74;89.13;99512.52;181720;1253;43811;-85
2024/02/06 07:46:55;;;;;;;4.50;1.80;;;;;;;9.74;89.20;99513.88;181832;1253;58149;-85
2024/02/06 07:50:59;;;;;;;5.80;3.20;;;;;;;9.76;89.08;99509.96;181789;1251;43826;-85
2024/02/06 07:55:04;;;;;;;10.30;4.10;;;;;;;9.80;89.39;99513.73;181772;1252;44221;-85
2024/02/06 07:59:11;;;;;;;4.40;2.70;;;;;;;9.82;89.52;99514.58;181872;1252;44064;-85
2024/02/06 08:03:14;;;;;;;5.40;3.00;;;;;;;9.80;89.06;99511.19;181791;1253;43935;-85
2024/02/06 08:07:18;;;;;;;5.00;2.10;;;;;;;9.86;88.95;99514.55;181773;1254;59599;-86
2024/02/06 08:11:23;;;;;;;3.10;2.30;;;;;;;9.89;89.28;99515.92;181685;1253;43982;-85
2024/02/06 08:15:27;;;;;;;4.00;2.60;;;;;;;9.91;88.85;99510.83;181772;1254;43832;-85
2024/02/06 08:19:32;;;;;;;4.10;3.30;;;;;;;9.94;88.84;99512.64;182043;1253;45009;-85
2024/02/06 08:23:35;;;;;;;3.30;1.90;;;;;;;10.02;89.53;99514.57;181964;1253;43704;-85
2024/02/06 08:27:39;;;;;;;3.70;2.00;;;;;;;9.97;88.84;99512.51;181635;1253;58797;-85
2024/02/06 08:31:42;;;;;;;4.20;1.80;;;;;;;10.00;90.17;99515.97;181989;1254;43714;-84
2024/02/06 08:35:51;;;;;;;8.00;3.10;;;;;;;10.00;91.69;99518.27;181707;1252;43841;-85
2024/02/06 08:39:54;;;;;;;6.10;3.00;;;;;;;10.02;91.51;99529.45;181776;1252;43768;-84
2024/02/06 08:43:58;;;;;;;2.50;2.10;;;;;;;10.05;92.36;99521.89;181956;1253;44058;-85
2024/02/06 08:48:03;;;;;;;4.50;2.00;;;;;;;10.12;92.20;99527.29;181673;1254;57930;-85
2024/02/06 08:52:06;;;;;;;8.40;4.20;;;;;;;10.11;91.10;99511.95;181937;1253;44175;-85
2024/02/06 08:56:10;;;;;;;14.70;3.90;;;;;;;10.15;91.69;99515.88;181895;1254;43822;-84
2024/02/06 09:00:16;;;;;;;2.70;2.30;;;;;;;10.15;92.29;99507.66;181689;1254;44285;-84
2024/02/06 09:04:20;;;;;;;5.90;2.50;;;;;;;10.24;92.97;99506.67;182009;1254;44013;-84
2024/02/06 09:08:24;;;;;;;7.00;2.40;;;;;;;10.26;92.34;99502.98;181775;1253;59875;-85
2024/02/06 09:12:27;;;;;;;4.60;2.80;;;;;;;10.31;91.75;99489.76;181984;1253;43650;-85
2024/02/06 09:16:30;;;;;;;7.10;2.70;;;;;;;10.32;91.02;99496.98;182068;1254;43821;-84
2024/02/06 09:20:34;;;;;;;7.10;2.70;;;;;;;10.31;90.95;99493.63;181732;1253;44073;-85
2024/02/06 09:24:38;;;;;;;5.20;2.40;;;;;;;10.34;88.97;99490.36;181911;1253;44418;-84
2024/02/06 09:28:42;;;;;;;10.00;3.20;;;;;;;10.41;88.69;99487.60;181860;1253;58197;-85
2024/02/06 09:32:46;;;;;;;4.80;1.50;;;;;;;10.47;89.02;99493.98;181889;1254;44030;-85
2024/02/06 09:36:50;;;;;;;10.10;2.40;;;;;;;10.46;87.67;99495.16;182089;1254;44192;-84
2024/02/06 09:40:54;;;;;;;2.90;1.30;;;;;;;10.50;87.47;99500.29;181789;1254;44009;-84
2024/02/06 09:44:59;;;;;;;2.40;1.70;;;;;;;10.50;86.91;99493.19;182019;1254;43845;-85
2024/02/06 09:49:03;;;;;;;7.00;2.10;;;;;;;10.56;87.00;99493.38;181767;1254;58540;-84
2024/02/06 09:53:09;;;;;;;5.90;2.40;;;;;;;10.63;85.83;99485.77;181594;1254;44062;-85
2024/02/06 09:57:17;;;;;;;4.60;1.60;;;;;;;10.74;85.89;99488.62;181861;1253;44084;-85
2024/02/06 10:01:21;;;;;;;5.50;2.60;;;;;;;10.74;84.95;99478.88;181741;1253;44265;-84
2024/02/06 10:05:38;;;;;;;7.60;3.00;;;;;;;10.76;84.45;99476.54;181756;1253;43868;-85
2024/02/06 10:09:45;;;;;;;3.90;2.30;;;;;;;10.78;84.56;99479.76;181785;1254;59552;-84
2024/02/06 10:13:48;;;;;;;5.50;1.70;;;;;;;10.74;83.54;99474.13;181703;1254;44276;-85
2024/02/06 10:17:52;;;;;;;5.00;2.10;;;;;;;10.73;83.57;99466.00;181883;1253;43794;-84
2024/02/06 10:21:56;;;;;;;6.80;3.00;;;;;;;10.77;83.48;99462.48;181933;1254;44182;-85
2024/02/06 10:26:02;;;;;;;6.40;2.50;;;;;;;10.77;82.89;99461.52;181876;1253;44107;-84
2024/02/06 10:30:12;;;;;;;7.40;2.60;;;;;;;10.83;82.65;99445.44;181755;1254;60316;-84
2024/02/06 10:34:15;;;;;;;4.40;2.00;;;;;;;10.81;83.12;99456.73;181677;1254;44051;-85
2024/02/06 10:38:19;;;;;;;6.60;2.10;;;;;;;10.82;82.06;99444.23;181731;1254;44061;-84
2024/02/06 10:42:22;;;;;;;5.00;1.80;;;;;;;10.86;82.14;99436.43;181988;1254;44051;-85
2024/02/06 10:46:45;;;;;;;5.60;1.60;;;;;;;10.88;82.29;99441.34;181790;1255;43981;-85
2024/02/06 10:50:58;;;;;;;4.50;1.90;;;;;;;10.90;81.94;99437.20;181838;1254;58268;-85
2024/02/06 10:55:03;;;;;;;3.40;2.20;;;;;;;11.04;82.43;99422.09;181712;1252;43888;-85
2024/02/06 10:59:12;;;;;;;1.70;0.70;;;;;;;11.09;82.25;99417.55;181991;1253;44019;-85
2024/02/06 11:03:17;;;;;;;3.90;1.40;;;;;;;11.23;80.93;99410.27;181758;1255;44000;-85
2024/02/06 11:07:24;;;;;;;2.20;1.40;;;;;;;11.36;81.23;99411.38;181759;1253;43804;-85
2024/02/06 11:11:28;;;;;;;4.80;1.20;;;;;;;11.42;80.73;99411.33;181650;1253;57989;-85
2024/02/06 11:15:34;;;;;;;2.80;1.50;;;;;;;11.37;80.89;99394.75;181696;1252;44334;-85
2024/02/06 11:19:53;;;;;;;3.60;1.00;;;;;;;11.36;80.48;99387.59;181635;1255;43704;-85
2024/02/06 11:23:58;;;;;;;3.60;1.40;;;;;;;11.29;80.50;99389.32;181728;1253;44149;-85
2024/02/06 11:28:03;;;;;;;6.30;1.70;;;;;;;11.31;81.01;99386.25;181616;1254;43821;-85
2024/02/06 11:32:08;;;;;;;3.70;1.70;;;;;;;11.41;80.43;99383.84;181885;1254;58221;-85
2024/02/06 11:36:12;;;;;;;2.00;1.40;;;;;;;11.40;80.52;99389.62;181616;1254;44054;-85
2024/02/06 11:40:24;;;;;;;2.20;1.40;;;;;;;11.41;80.15;99387.08;181604;1252;44106;-85
2024/02/06 11:44:27;;;;;;;5.10;2.70;;;;;;;11.33;80.11;99386.63;181676;1254;44193;-85
2024/02/06 11:48:30;;;;;;;3.50;1.80;;;;;;;11.33;80.56;99391.73;181765;1254;43773;-85
2024/02/06 11:52:34;;;;;;;4.00;1.60;;;;;;;11.29;80.93;99396.24;182012;1253;59571;-85
2024/02/06 11:56:38;;;;;;;5.90;2.40;;;;;;;11.32;81.44;99391.68;181882;1254;43960;-85
2024/02/06 12:00:41;;;;;;;5.50;1.10;;;;;;;11.36;81.06;99382.73;181988;1254;44168;-85
2024/02/06 12:04:45;;;;;;;3.00;1.80;;;;;;;11.38;80.10;99373.16;181926;1252;44035;-85
2024/02/06 12:08:59;;;;;;;3.00;1.60;;;;;;;11.40;79.98;99370.59;181600;1253;43897;-85
2024/02/06 12:13:09;;;;;;;5.00;1.90;;;;;;;11.40;80.60;99370.48;181618;1253;59963;-85
2024/02/06 12:17:13;;;;;;;2.10;1.40;;;;;;;11.45;80.94;99358.94;181582;1254;44161;-84
2024/02/06 12:21:24;;;;;;;1.40;1.30;;;;;;;11.49;80.45;99356.28;181498;1253;44095;-85
2024/02/06 12:25:28;;;;;;;7.60;2.10;;;;;;;11.54;80.39;99353.64;181502;1253;44416;-85
2024/02/06 12:29:38;;;;;;;2.40;0.90;;;;;;;11.63;80.54;99357.91;181541;1254;43790;-85
2024/02/06 12:33:42;;;;;;;3.20;1.00;;;;;;;11.63;80.51;99357.73;181526;1254;60628;-84
2024/02/06 12:37:47;;;;;;;4.40;1.40;;;;;;;11.67;80.43;99350.02;181911;1253;43808;-85
2024/02/06 12:42:06;;;;;;;2.30;1.10;;;;;;;11.72;80.52;99349.35;181686;1254;43907;-85
2024/02/06 12:46:10;;;;;;;2.10;1.10;;;;;;;11.71;79.89;99350.47;181674;1253;43959;-85
2024/02/06 12:50:14;;;;;;;2.00;1.50;;;;;;;11.70;80.54;99352.38;181670;1254;44077;-85
2024/02/06 12:54:17;;;;;;;9.20;1.80;;;;;;;11.68;79.85;99347.78;181558;1253;59360;-85
2024/02/06 12:58:21;;;;;;;1.70;1.10;;;;;;;11.68;80.29;99353.84;181595;1253;43858;-85
2024/02/06 13:02:24;;;;;;;2.90;0.90;;;;;;;11.62;80.62;99357.08;181649;1253;44073;-85
2024/02/06 13:06:37;;;;;;;2.40;1.40;;;;;;;11.62;80.82;99356.44;181875;1254;44120;-85
2024/02/06 13:10:41;;;;;;;1.30;0.90;;;;;;;11.62;80.74;99352.23;181886;1254;44133;-85
2024/02/06 13:14:49;;;;;;;3.30;0.90;;;;;;;11.66;80.95;99338.98;181820;1253;58180;-85
2024/02/06 13:18:58;;;;;;;2.50;1.30;;;;;;;11.66;81.23;99343.02;181798;1254;44102;-84
2024/02/06 13:23:09;;;;;;;1.70;0.80;;;;;;;11.59;80.61;99333.41;181820;1254;43838;-85
2024/02/06 13:27:13;;;;;;;1.70;1.00;;;;;;;11.65;80.20;99327.48;182067;1254;43805;-86
2024/02/06 13:31:17;;;;;;;1.50;1.00;;;;;;;11.68;80.64;99326.11;181630;1252;44021;-85
2024/02/06 13:35:32;;;;;;;3.30;2.00;;;;;;;11.66;79.69;99324.90;181693;1254;58256;-86
2024/02/06 13:39:35;;;;;;;2.00;0.90;;;;;;;11.62;79.74;99320.32;181822;1253;46463;-85
2024/02/06 13:43:40;;;;;;;1.50;0.70;;;;;;;11.54;79.65;99320.18;181869;1254;43724;-86
2024/02/06 13:47:44;;;;;;;1.50;0.90;;;;;;;11.53;80.02;99320.82;181953;1253;43734;-85
2024/02/06 13:51:49;;;;;;;2.10;1.30;;;;;;;11.52;80.34;99320.14;181920;1253;43902;-85
2024/02/06 13:55:52;;;;;;;2.40;1.40;;;;;;;11.51;80.46;99313.81;181699;1253;58224;-85
2024/02/06 13:59:55;;;;;;;1.70;1.00;;;;;;;11.46;79.90;99307.58;181677;1254;43981;-85
2024/02/06 14:03:59;;;;;;;2.50;1.20;;;;;;;11.47;80.79;99305.36;181830;1253;44076;-85
2024/02/06 14:08:02;;;;;;;1.30;1.10;;;;;;;11.45;80.54;99305.70;181984;1252;43724;-85
2024/02/06 14:12:06;;;;;;;3.80;1.80;;;;;;;11.44;80.58;99304.52;181763;1252;44087;-85
2024/02/06 14:16:21;;;;;;;3.30;1.20;;;;;;;11.42;80.76;99306.20;181897;1254;59602;-85
2024/02/06 14:20:24;;;;;;;1.70;0.90;;;;;;;11.38;80.59;99306.23;181992;1252;43753;-86
2024/02/06 14:24:27;;;;;;;2.40;1.20;;;;;;;11.43;81.57;99312.69;181742;1254;44224;-86
2024/02/06 14:28:31;;;;;;;2.60;1.50;;;;;;;11.40;80.81;99299.45;181712;1253;44136;-85
2024/02/06 14:32:35;;;;;;;1.30;1.20;;;;;;;11.39;81.11;99284.80;181692;1252;43931;-85
2024/02/06 14:36:38;;;;;;;3.10;1.10;;;;;;;11.43;81.15;99283.03;181806;1254;58051;-85
2024/02/06 14:40:41;;;;;;;2.00;1.00;;;;;;;11.40;80.73;99280.13;181781;1253;43901;-86
2024/02/06 14:44:46;;;;;;;3.80;1.40;;;;;;;11.31;80.57;99275.66;181817;1253;44498;-85
2024/02/06 14:48:54;;;;;;;2.50;1.30;;;;;;;11.33;81.37;99277.08;181755;1253;44070;-85
2024/02/06 14:52:57;;;;;;;3.00;1.10;;;;;;;11.33;81.34;99273.57;181925;1253;44013;-86
2024/02/06 14:57:01;;;;;;;3.30;1.40;;;;;;;11.27;81.41;99269.54;181706;1253;59218;-85
2024/02/06 15:01:04;;;;;;;2.60;1.40;;;;;;;11.32;81.07;99261.02;181857;1253;44274;-86
2024/02/06 15:05:09;;;;;;;4.70;1.80;;;;;;;11.32;81.54;99258.33;181752;1253;44389;-85
2024/02/06 15:09:15;;;;;;;6.60;1.30;;;;;;;11.33;81.06;99255.94;181650;1253;44202;-85
2024/02/06 15:13:18;;;;;;;3.50;1.80;;;;;;;11.31;81.19;99249.94;181660;1253;43731;-86
2024/02/06 15:17:21;;;;;;;4.40;1.70;;;;;;;11.32;81.58;99234.80;181683;1253;59146;-82
2024/02/06 15:21:25;;;;;;;2.60;1.30;;;;;;;11.35;81.35;99231.15;181758;1253;44417;-81
2024/02/06 15:25:28;;;;;;;3.40;1.00;;;;;;;11.31;81.81;99230.09;181780;1253;44141;-82
2024/02/06 15:29:32;;;;;;;3.40;1.40;;;;;;;11.26;81.63;99226.67;181482;1253;240296;-81
2024/02/06 15:33:35;;;;;;;2.70;1.20;;;;;;;11.33;81.19;99225.65;181662;1253;44010;-81
2024/02/06 15:37:38;;;;;;;2.30;1.30;;;;;;;11.30;81.36;99215.27;181622;1253;58444;-81
2024/02/06 15:41:42;;;;;;;3.10;1.30;;;;;;;11.31;82.15;99214.27;181811;1253;44361;-81
2024/02/06 15:45:47;;;;;;;4.00;2.00;;;;;;;11.25;81.73;99210.40;181709;1252;44332;-82
2024/02/06 15:49:50;;;;;;;8.10;1.40;;;;;;;11.20;81.40;99210.77;181516;1253;44152;-82
2024/02/06 15:53:54;;;;;;;1.20;1.00;;;;;;;11.23;81.44;99199.29;181764;1253;44379;-82
2024/02/06 15:57:57;;;;;;;2.50;1.70;;;;;;;11.18;81.52;99202.86;181620;1254;58675;-82
2024/02/06 16:02:00;;;;;;;1.20;0.60;;;;;;;11.21;82.31;99195.60;181561;1253;43922;-81
2024/02/06 16:06:04;;;;;;;2.20;1.20;;;;;;;11.15;82.10;99185.88;181561;1253;44118;-82
2024/02/06 16:10:08;;;;;;;6.80;2.10;;;;;;;11.15;81.84;99184.52;181637;1253;43860;-82
2024/02/06 16:14:12;;;;;;;2.00;1.10;;;;;;;11.19;82.13;99183.31;181522;1254;43807;-82
2024/02/06 16:18:15;;;;;;;1.90;1.40;;;;;;;11.16;82.23;99172.44;181744;1251;59546;-81
2024/02/06 16:22:18;;;;;;;1.90;0.90;;;;;;;11.21;82.16;99170.25;181760;1253;43962;-81
2024/02/06 16:26:21;;;;;;;1.90;0.90;;;;;;;11.20;82.74;99174.06;181916;1252;43720;-81
2024/02/06 16:30:24;;;;;;;2.60;1.00;;;;;;;11.20;82.23;99164.15;181614;1253;44045;-82
2024/02/06 16:34:28;;;;;;;3.60;2.20;;;;;;;11.21;81.91;99159.06;181555;1253;44067;-81
2024/02/06 16:38:41;;;;;;;3.90;1.50;;;;;;;11.23;81.99;99161.52;181757;1254;58890;-82
2024/02/06 16:42:45;;;;;;;2.80;0.90;;;;;;;11.22;81.69;99157.33;181759;1253;44269;-81
2024/02/06 16:46:48;;;;;;;3.70;1.40;;;;;;;11.20;81.19;99153.08;181749;1253;43790;-81
2024/02/06 16:50:51;;;;;;;0.90;0.70;;;;;;;11.27;81.58;99164.42;181734;1253;44133;-81
2024/02/06 16:54:55;;;;;;;4.10;1.30;;;;;;;11.22;81.97;99159.95;181596;1252;44088;-82
2024/02/06 16:58:58;;;;;;;3.10;1.40;;;;;;;11.24;82.37;99158.59;181551;1253;58117;-82
2024/02/06 17:03:02;;;;;;;1.70;0.80;;;;;;;11.22;81.75;99159.84;181532;1251;44227;-81
2024/02/06 17:07:05;;;;;;;3.30;1.40;;;;;;;11.24;81.95;99158.86;181751;1253;43748;-82
2024/02/06 17:11:09;;;;;;;2.30;1.20;;;;;;;11.26;81.62;99159.56;181894;1253;43803;-82
2024/02/06 17:15:13;;;;;;;1.30;1.00;;;;;;;11.27;81.47;99150.38;181631;1252;43818;-81
2024/02/06 17:19:16;;;;;;;1.70;1.20;;;;;;;11.31;81.01;99160.48;181670;1253;58518;-81
2024/02/06 17:23:20;;;;;;;2.30;1.20;;;;;;;11.35;80.94;99150.33;181597;1252;43860;-82
2024/02/06 17:27:23;;;;;;;1.60;0.90;;;;;;;11.39;80.69;99149.02;181782;1252;44140;-83
2024/02/06 17:31:26;;;;;;;1.90;1.40;;;;;;;11.39;80.46;99151.57;181508;1253;44178;-82
2024/02/06 17:35:29;;;;;;;1.60;1.10;;;;;;;11.39;81.26;99152.10;181596;1253;43841;-82
2024/02/06 17:39:33;;;;;;;1.20;1.10;;;;;;;11.41;80.80;99152.75;181660;1253;56954;-82
2024/02/06 17:43:37;;;;;;;1.30;0.90;;;;;;;11.40;81.59;99150.48;181963;1252;44037;-82
2024/02/06 17:47:40;;;;;;;1.30;0.80;;;;;;;11.43;81.25;99140.84;181834;1253;43823;-81
2024/02/06 17:51:43;;;;;;;2.40;1.00;;;;;;;11.45;80.73;99134.95;181620;1253;44098;-81
2024/02/06 17:55:46;;;;;;;5.60;1.30;;;;;;;11.45;81.48;99138.48;181879;1253;44020;-81
2024/02/06 17:59:49;;;;;;;3.40;1.30;;;;;;;11.43;81.42;99133.18;181786;1253;59216;-81
2024/02/06 18:03:52;;;;;;;1.10;0.70;;;;;;;11.44;81.52;99128.44;181874;1253;43897;-82
2024/02/06 18:07:56;;;;;;;2.10;1.00;;;;;;;11.48;80.70;99124.18;181752;1252;44087;-82
2024/02/06 18:11:59;;;;;;;1.10;1.00;;;;;;;11.52;81.00;99127.26;181848;1252;43964;-82
2024/02/06 18:16:03;;;;;;;4.50;1.70;;;;;;;11.51;81.80;99120.41;181893;1252;43843;-82
2024/02/06 18:20:06;;;;;;;2.60;1.00;;;;;;;11.49;81.49;99114.31;181492;1252;59182;-82
2024/02/06 18:24:10;;;;;;;2.70;0.90;;;;;;;11.46;81.43;99094.73;181727;1256;44129;-80
2024/02/06 18:28:13;;;;;;;1.60;0.90;;;;;;;11.47;81.73;99093.16;181634;1253;44157;-84
2024/02/06 18:32:16;;;;;;;4.10;1.60;;;;;;;11.47;81.98;99088.40;181919;1252;44045;-83
2024/02/06 18:36:20;;;;;;;2.60;1.30;;;;;;;11.45;82.54;99087.02;181756;1252;43760;-84
2024/02/06 18:40:25;;;;;;;2.00;1.50;;;;;;;11.37;81.92;99075.95;181819;1252;58837;-84
2024/02/06 18:44:29;;;;;;;3.00;0.90;;;;;;;11.38;82.27;99076.41;181756;1253;44170;-83
2024/02/06 18:48:32;;;;;;;2.30;1.60;;;;;;;11.37;82.03;99065.69;181845;1252;44435;-83
2024/02/06 18:52:37;;;;;;;1.80;1.10;;;;;;;11.36;81.93;99065.56;181733;1252;44239;-83
2024/02/06 18:56:41;;;;;;;3.20;1.40;;;;;;;11.37;82.65;99065.13;181852;1253;43986;-83